Time;durP1;ratioP1;P1;durP2;ratioP2;P2;SDS_P1;SDS_P2;PMS_P1;PMS_P2;Temp;Humidity;BMP_temperature;BMP_pressure;BME280_temperature;BME280_humidity;BME280_pressure;Samples;Min_cycle;Max_cycle;Signal;HPM_P1;HPM_P2
2021/03/01 00:02:35;;;;;;;24.98;13.80;;;;;;;4.05;100.00;100614.85;4278576;82;28596;-76
2021/03/01 00:08:38;;;;;;;29.67;13.78;;;;;;;4.08;100.00;100625.70;4273223;82;28597;-76
2021/03/01 00:14:40;;;;;;;26.75;13.78;;;;;;;3.82;100.00;100612.60;4288745;81;28604;-76
2021/03/01 00:20:42;;;;;;;28.42;15.43;;;;;;;3.98;100.00;100611.95;4284766;81;28597;-76
2021/03/01 00:26:44;;;;;;;31.10;16.05;;;;;;;3.95;100.00;100628.70;4295675;81;28613;-77
2021/03/01 00:32:47;;;;;;;31.07;16.55;;;;;;;3.85;100.00;100655.34;4273455;81;28616;-76
2021/03/01 00:38:49;;;;;;;26.37;14.45;;;;;;;3.76;100.00;100654.41;4295038;81;28656;-78
2021/03/01 00:44:51;;;;;;;29.75;15.43;;;;;;;3.90;100.00;100645.11;4277042;81;28621;-76
2021/03/01 00:50:53;;;;;;;29.92;15.15;;;;;;;3.87;100.00;100660.87;4245399;82;28570;-76
2021/03/01 00:56:56;;;;;;;28.62;14.65;;;;;;;3.74;100.00;100659.88;4257282;82;28641;-76
2021/03/01 01:02:58;;;;;;;23.35;12.40;;;;;;;3.57;100.00;100670.79;4231602;82;28545;-77
2021/03/01 01:09:23;;;;;;;24.18;12.23;;;;;;;3.70;100.00;100663.00;4377485;79;84971;-79
2021/03/01 01:15:26;;;;;;;25.40;12.33;;;;;;;3.76;100.00;100656.59;4330941;81;28545;-78
2021/03/01 01:21:28;;;;;;;23.87;12.75;;;;;;;3.59;100.00;100663.53;4333239;80;28553;-78
2021/03/01 01:27:30;;;;;;;28.95;13.65;;;;;;;3.70;100.00;100667.81;4327418;81;28548;-79
2021/03/01 01:33:33;;;;;;;24.60;11.97;;;;;;;3.48;100.00;100675.64;4322220;80;28575;-78
2021/03/01 01:39:35;;;;;;;23.75;11.95;;;;;;;3.38;100.00;100684.98;4305745;81;28547;-79
2021/03/01 01:45:37;;;;;;;23.32;12.10;;;;;;;3.33;100.00;100700.03;4301974;81;28637;-78
2021/03/01 01:51:43;;;;;;;23.95;12.65;;;;;;;3.31;100.00;100702.48;4303791;80;28580;-75
2021/03/01 01:57:46;;;;;;;25.63;13.07;;;;;;;3.40;100.00;100699.48;4318717;80;28620;-76
2021/03/01 02:04:07;;;;;;;28.23;13.70;;;;;;;3.53;100.00;100708.45;4340384;80;28565;-76
2021/03/01 02:10:17;;;;;;;29.60;14.18;;;;;;;3.59;100.00;100701.24;4321525;80;28586;-76
2021/03/01 02:16:24;;;;;;;24.92;12.70;;;;;;;3.70;100.00;100693.08;4271730;81;28612;-75
2021/03/01 02:22:28;;;;;;;29.70;14.30;;;;;;;3.66;100.00;100701.02;4319307;81;28540;-75
2021/03/01 02:28:35;;;;;;;28.05;14.53;;;;;;;3.80;100.00;100705.04;4326880;80;28539;-76
2021/03/01 02:34:39;;;;;;;24.52;12.47;;;;;;;3.81;100.00;100691.23;4305474;82;28628;-76
2021/03/01 02:40:42;;;;;;;28.12;13.48;;;;;;;3.76;100.00;100700.50;4302965;80;28614;-77
2021/03/01 02:46:47;;;;;;;31.30;15.85;;;;;;;3.72;100.00;100700.93;4299328;82;28659;-77
2021/03/01 02:52:50;;;;;;;29.02;13.50;;;;;;;3.84;100.00;100694.91;4295650;80;28645;-78
2021/03/01 02:58:55;;;;;;;28.30;13.90;;;;;;;3.94;100.00;100686.41;4279808;82;28630;-76
2021/03/01 03:04:59;;;;;;;31.37;15.15;;;;;;;3.92;100.00;100692.37;4315295;80;28559;-76
2021/03/01 03:11:02;;;;;;;32.70;15.93;;;;;;;3.91;100.00;100698.67;4295527;82;28646;-78
2021/03/01 03:17:05;;;;;;;30.90;14.38;;;;;;;3.87;100.00;100699.97;4301845;80;28587;-79
2021/03/01 03:23:09;;;;;;;34.73;16.17;;;;;;;3.85;100.00;100699.25;4316081;80;28552;-79
2021/03/01 03:29:11;;;;;;;27.67;13.65;;;;;;;3.92;100.00;100704.86;4304545;80;28532;-77
2021/03/01 03:35:14;;;;;;;26.87;13.72;;;;;;;3.81;100.00;100700.06;4312777;80;28589;-77
2021/03/01 03:41:17;;;;;;;33.53;16.12;;;;;;;3.87;100.00;100705.29;4304099;80;28580;-77
2021/03/01 03:47:22;;;;;;;32.70;15.53;;;;;;;3.92;100.00;100705.67;4324151;80;28548;-77
2021/03/01 03:53:29;;;;;;;32.20;15.33;;;;;;;3.85;100.00;100709.89;4313759;82;36285;-77
2021/03/01 03:59:35;;;;;;;35.65;16.93;;;;;;;3.81;100.00;100709.38;4318958;80;28556;-77
2021/03/01 04:05:43;;;;;;;34.48;16.12;;;;;;;3.86;100.00;100713.75;4309979;80;28577;-77
2021/03/01 04:11:48;;;;;;;37.67;17.85;;;;;;;3.74;100.00;100710.42;4324823;81;28581;-77
2021/03/01 04:17:52;;;;;;;33.33;15.93;;;;;;;3.81;100.00;100715.17;4332243;81;28588;-77
2021/03/01 04:23:57;;;;;;;36.73;16.60;;;;;;;3.87;100.00;100714.09;4344972;81;28575;-78
2021/03/01 04:30:01;;;;;;;30.95;13.08;;;;;;;3.90;100.00;100720.48;4333111;81;28622;-77
2021/03/01 04:36:06;;;;;;;35.45;16.70;;;;;;;3.91;100.00;100715.98;4349996;81;28552;-76
2021/03/01 04:42:08;;;;;;;38.42;17.10;;;;;;;3.98;100.00;100717.08;4318794;81;28541;-77
2021/03/01 04:48:11;;;;;;;33.58;16.00;;;;;;;4.02;100.00;100720.29;4332873;81;28552;-77
2021/03/01 04:54:15;;;;;;;31.12;15.08;;;;;;;4.05;100.00;100718.14;4332499;81;28554;-77
2021/03/01 05:00:19;;;;;;;35.63;16.85;;;;;;;4.08;100.00;100719.69;4331518;81;28553;-77
2021/03/01 05:06:22;;;;;;;40.52;16.77;;;;;;;4.01;100.00;100724.77;4356378;81;28630;-78
2021/03/01 05:12:24;;;;;;;35.43;15.90;;;;;;;3.97;100.00;100731.38;4324320;81;28551;-78
2021/03/01 05:18:30;;;;;;;32.23;15.83;;;;;;;4.00;100.00;100735.55;4327661;81;28546;-78
2021/03/01 05:24:32;;;;;;;;;;;;;;;4.00;100.00;100739.53;4348831;81;28587;-78
2021/03/01 05:30:34;;;;;;;38.33;16.82;;;;;;;3.82;100.00;100750.11;4336392;81;20289;-77
2021/03/01 05:36:37;;;;;;;36.45;17.40;;;;;;;3.84;100.00;100749.46;4348176;81;28548;-77
2021/03/01 05:42:42;;;;;;;42.17;18.48;;;;;;;3.77;100.00;100757.19;4325021;81;28592;-76
2021/03/01 05:48:47;;;;;;;39.35;18.07;;;;;;;3.83;100.00;100753.96;4316639;81;28606;-76
2021/03/01 05:54:50;;;;;;;37.98;16.25;;;;;;;3.84;100.00;100756.11;4354846;81;28623;-76
2021/03/01 06:01:01;;;;;;;39.03;17.75;;;;;;;3.89;100.00;100759.20;4307332;81;28578;-79
2021/03/01 06:07:04;;;;;;;36.28;17.05;;;;;;;3.97;100.00;100775.28;4315905;81;28545;-79
2021/03/01 06:13:06;;;;;;;39.38;17.25;;;;;;;3.95;100.00;100777.23;4189819;83;28595;-79
2021/03/01 06:19:09;;;;;;;37.17;17.45;;;;;;;4.03;100.00;100784.00;4179476;84;28585;-80
2021/03/01 06:25:14;;;;;;;38.15;17.85;;;;;;;4.11;100.00;100797.09;4195914;84;28569;-77
2021/03/01 06:31:41;;;;;;;;;;;;;;;4.21;100.00;100803.22;4185244;84;28664;-77
2021/03/01 06:37:45;;;;;;;37.60;15.90;;;;;;;4.12;100.00;100802.75;4183024;84;20279;-79
2021/03/01 06:43:58;;;;;;;39.27;16.67;;;;;;;4.20;100.00;100809.53;4176048;84;28611;-76
2021/03/01 06:49:59;;;;;;;38.78;17.60;;;;;;;4.18;100.00;100816.32;4190723;84;28582;-76
2021/03/01 06:56:16;;;;;;;35.40;15.98;;;;;;;4.26;100.00;100815.59;4189082;84;28553;-77
2021/03/01 07:02:36;;;;;;;39.50;16.32;;;;;;;4.36;100.00;100822.70;4177439;84;28573;-79
2021/03/01 07:08:53;;;;;;;38.80;17.40;;;;;;;4.42;100.00;100820.29;4234663;82;28630;-76
2021/03/01 07:14:55;;;;;;;35.88;16.23;;;;;;;4.42;100.00;100824.28;4266683;82;28647;-77
2021/03/01 07:20:58;;;;;;;34.13;14.73;;;;;;;4.34;100.00;100833.52;4266470;82;28566;-76
2021/03/01 07:27:05;;;;;;;33.45;13.68;;;;;;;4.44;100.00;100842.80;4278427;82;28557;-77
2021/03/01 07:33:07;;;;;;;36.13;16.05;;;;;;;4.11;100.00;100845.83;4272739;82;28599;-77
2021/03/01 07:39:15;;;;;;;35.65;15.60;;;;;;;4.62;100.00;100842.03;4265923;82;28589;-77
2021/03/01 07:45:18;;;;;;;31.37;13.45;;;;;;;4.70;100.00;100852.79;4263099;82;28626;-77
2021/03/01 07:51:45;;;;;;;34.25;14.05;;;;;;;4.75;100.00;100867.83;4272672;82;28553;-76
2021/03/01 07:58:04;;;;;;;32.60;14.75;;;;;;;5.00;100.00;100862.30;4274265;82;28557;-76
2021/03/01 08:04:09;;;;;;;36.88;15.70;;;;;;;5.08;100.00;100871.37;4266555;82;28644;-76
2021/03/01 08:10:34;;;;;;;30.02;13.65;;;;;;;4.69;100.00;100882.58;4198306;82;28564;-76
2021/03/01 08:16:36;;;;;;;38.23;15.53;;;;;;;5.06;100.00;100884.84;4189594;84;28543;-76
2021/03/01 08:23:08;;;;;;;30.43;13.22;;;;;;;5.07;100.00;100883.86;4210582;84;28605;-76
2021/03/01 08:29:17;;;;;;;29.67;13.55;;;;;;;4.99;100.00;100896.61;4201065;84;29095;-77
2021/03/01 08:35:21;;;;;;;31.33;13.95;;;;;;;4.96;100.00;100893.39;4194479;84;28606;-75
2021/03/01 08:41:37;;;;;;;32.00;12.58;;;;;;;4.97;100.00;100895.92;4209621;84;28566;-78
2021/03/01 08:47:57;;;;;;;26.65;12.53;;;;;;;5.05;100.00;100903.17;4220294;83;28640;-78
2021/03/01 08:53:59;;;;;;;29.10;13.03;;;;;;;5.04;100.00;100908.16;4203156;84;28601;-78
2021/03/01 09:00:10;;;;;;;30.43;13.58;;;;;;;5.46;100.00;100904.61;4180252;84;28563;-78
2021/03/01 09:06:18;;;;;;;21.75;10.28;;;;;;;5.18;100.00;100909.97;4186418;84;28671;-77
2021/03/01 09:12:23;;;;;;;26.45;12.03;;;;;;;5.34;100.00;100921.31;4340012;81;28594;-78
2021/03/01 09:18:28;;;;;;;26.42;11.68;;;;;;;5.39;100.00;100911.87;4168730;84;28568;-75
2021/03/01 09:24:30;;;;;;;25.43;11.25;;;;;;;5.21;100.00;100928.36;4181374;84;28598;-76
2021/03/01 09:30:33;;;;;;;25.88;11.78;;;;;;;5.15;100.00;100932.44;4337967;81;28600;-76
2021/03/01 09:36:37;;;;;;;26.02;12.55;;;;;;;5.58;100.00;100923.41;4159488;84;28611;-75
2021/03/01 09:42:39;;;;;;;23.73;10.95;;;;;;;5.75;100.00;100928.39;4207490;83;28593;-78
2021/03/01 09:48:53;;;;;;;16.12;8.30;;;;;;;6.10;100.00;100928.55;4227306;83;28578;-79
2021/03/01 09:54:55;;;;;;;23.62;9.70;;;;;;;6.34;100.00;100934.58;4238609;82;28634;-81
2021/03/01 10:01:16;;;;;;;26.25;11.75;;;;;;;6.45;100.00;100936.66;4237431;82;28597;-80
2021/03/01 10:07:25;;;;;;;18.32;9.20;;;;;;;6.49;100.00;100932.66;4175220;83;28621;-80
2021/03/01 10:13:34;;;;;;;22.95;10.65;;;;;;;6.26;100.00;100935.37;4182094;84;28557;-82
2021/03/01 10:19:38;;;;;;;22.82;10.43;;;;;;;6.35;100.00;100937.59;4190791;84;28601;-82
2021/03/01 10:25:42;;;;;;;23.10;10.60;;;;;;;6.46;100.00;100937.84;4194234;84;28569;-83
2021/03/01 10:31:44;;;;;;;24.10;10.20;;;;;;;6.54;100.00;100946.41;4206048;84;28609;-82
2021/03/01 10:38:03;;;;;;;21.50;9.95;;;;;;;6.47;100.00;100953.36;4197108;84;28596;-83
2021/03/01 10:44:07;;;;;;;23.05;10.90;;;;;;;6.17;100.00;100953.66;4179787;84;28658;-83
2021/03/01 10:50:20;;;;;;;22.22;9.33;;;;;;;6.49;100.00;100960.23;4183658;84;28565;-83
2021/03/01 10:56:24;;;;;;;21.45;9.68;;;;;;;6.49;100.00;100964.73;4176323;84;28581;-82
2021/03/01 11:02:26;;;;;;;16.75;7.85;;;;;;;6.24;100.00;100956.03;4186572;84;28561;-82
2021/03/01 11:08:28;;;;;;;23.65;10.00;;;;;;;6.59;100.00;100951.28;4204409;82;28560;-86
2021/03/01 11:14:31;;;;;;;20.60;10.05;;;;;;;6.74;100.00;100951.53;4284010;82;28637;-85
2021/03/01 11:20:33;;;;;;;22.58;10.82;;;;;;;6.64;100.00;100952.48;4256232;82;28556;-85
2021/03/01 11:26:36;;;;;;;16.60;8.18;;;;;;;6.69;100.00;100960.02;4269542;82;28575;-84
2021/03/01 11:32:38;;;;;;;19.77;9.35;;;;;;;6.60;100.00;100960.97;4272602;82;28605;-82
2021/03/01 11:38:42;;;;;;;16.23;8.48;;;;;;;6.47;100.00;100962.23;4256724;82;28550;-80
2021/03/01 11:44:47;;;;;;;18.65;8.63;;;;;;;6.75;100.00;100959.37;4259913;82;28666;-83
2021/03/01 11:50:51;;;;;;;17.92;9.18;;;;;;;7.00;100.00;100951.50;4270930;82;28585;-82
2021/03/01 11:56:53;;;;;;;15.90;8.60;;;;;;;7.24;100.00;100951.25;4258537;82;28644;-82
2021/03/01 12:02:56;;;;;;;16.80;7.95;;;;;;;7.08;100.00;100952.02;4259708;82;28621;-81
2021/03/01 12:08:59;;;;;;;22.85;9.88;;;;;;;7.42;100.00;100948.97;4235625;82;28577;-83
2021/03/01 12:15:01;;;;;;;22.67;10.13;;;;;;;7.79;100.00;100945.00;4187084;84;28620;-82
2021/03/01 12:21:03;;;;;;;22.70;10.10;;;;;;;7.74;100.00;100954.87;4187941;83;28633;-83
2021/03/01 12:27:06;;;;;;;18.10;8.88;;;;;;;7.90;100.00;100957.25;4202574;84;28606;-83
2021/03/01 12:33:08;;;;;;;21.97;10.00;;;;;;;8.08;100.00;100940.52;4190997;84;28581;-83
2021/03/01 12:39:11;;;;;;;20.37;9.60;;;;;;;7.79;100.00;100937.83;4195218;84;28581;-80
2021/03/01 12:45:14;;;;;;;21.10;10.03;;;;;;;7.90;100.00;100938.50;4180368;83;28624;-86
2021/03/01 12:51:17;;;;;;;20.20;9.88;;;;;;;7.49;100.00;100954.83;4192714;84;28592;-84
2021/03/01 12:57:19;;;;;;;23.20;11.15;;;;;;;7.53;100.00;100954.83;4185909;83;28608;-84
2021/03/01 13:03:21;;;;;;;21.77;9.95;;;;;;;7.65;100.00;100950.50;4190348;84;28557;-84
2021/03/01 13:09:23;;;;;;;20.85;9.65;;;;;;;7.53;100.00;100942.78;4226703;82;28572;-83
2021/03/01 13:15:31;;;;;;;25.40;11.20;;;;;;;7.71;100.00;100935.13;4266738;82;28647;-82
2021/03/01 13:21:44;;;;;;;23.10;11.05;;;;;;;7.73;100.00;100933.64;4236076;82;28584;-85
2021/03/01 13:28:12;;;;;;;26.07;12.88;;;;;;;7.83;100.00;100926.77;4525789;75;86349;-82
2021/03/01 13:34:15;;;;;;;29.42;12.60;;;;;;;7.82;100.00;100925.95;4418902;79;28546;-83
2021/03/01 13:40:17;;;;;;;25.10;11.48;;;;;;;7.78;100.00;100924.59;4317753;81;28562;-85
2021/03/01 13:46:19;;;;;;;27.25;12.20;;;;;;;7.91;100.00;100912.05;4271062;82;28566;-83
2021/03/01 13:52:22;;;;;;;27.87;12.47;;;;;;;7.79;100.00;100919.56;4241787;82;28610;-83
2021/03/01 13:58:24;;;;;;;25.62;12.58;;;;;;;7.48;100.00;100917.52;4276726;82;28694;-83
2021/03/01 14:04:27;;;;;;;24.95;12.30;;;;;;;7.48;100.00;100915.69;4242029;83;28633;-84
2021/03/01 14:10:29;;;;;;;28.67;13.32;;;;;;;7.52;100.00;100914.34;4237769;82;28549;-83
2021/03/01 14:16:32;;;;;;;30.95;13.83;;;;;;;7.55;100.00;100911.84;4249830;82;28552;-82
2021/03/01 14:22:35;;;;;;;31.33;13.95;;;;;;;7.31;100.00;100913.48;4311617;81;28580;-82
2021/03/01 14:28:38;;;;;;;29.40;13.10;;;;;;;7.21;100.00;100911.45;4234070;83;28593;-79
2021/03/01 14:34:40;;;;;;;25.50;11.57;;;;;;;7.33;100.00;100910.14;4240380;83;28645;-80
2021/03/01 14:40:44;;;;;;;27.40;13.15;;;;;;;7.30;100.00;100897.58;4224339;83;28554;-81
2021/03/01 14:46:48;;;;;;;30.70;12.70;;;;;;;7.38;100.00;100896.27;4316837;81;28614;-81
2021/03/01 14:52:50;;;;;;;23.87;11.38;;;;;;;7.30;100.00;100894.91;4244956;82;28548;-80
2021/03/01 14:58:53;;;;;;;25.10;12.05;;;;;;;7.43;100.00;100888.56;4316581;81;28560;-79
2021/03/01 15:04:55;;;;;;;25.40;11.85;;;;;;;7.13;100.00;100881.99;4315684;81;28603;-80
2021/03/01 15:11:00;;;;;;;25.10;11.73;;;;;;;7.39;100.00;100885.90;4244932;82;28601;-80
2021/03/01 15:17:04;;;;;;;26.20;12.30;;;;;;;7.09;100.00;100889.50;4287793;81;28580;-81
2021/03/01 15:23:09;;;;;;;23.90;12.13;;;;;;;7.24;100.00;100887.03;4293521;82;28578;-79
2021/03/01 15:29:11;;;;;;;25.77;11.30;;;;;;;7.06;100.00;100864.42;4306332;81;28578;-78
2021/03/01 15:35:14;;;;;;;27.75;11.65;;;;;;;7.20;100.00;100879.83;4299324;81;28604;-80
2021/03/01 15:41:18;;;;;;;24.50;12.30;;;;;;;7.08;100.00;100882.48;4302163;81;28588;-80
2021/03/01 15:47:20;;;;;;;25.88;11.05;;;;;;;7.10;100.00;100884.00;4301013;81;28566;-77
2021/03/01 15:53:23;;;;;;;25.43;9.85;;;;;;;6.94;100.00;100894.63;4298758;81;28601;-77
2021/03/01 15:59:25;;;;;;;29.32;12.55;;;;;;;6.87;100.00;100894.92;4293138;81;28605;-77
2021/03/01 16:05:27;;;;;;;20.95;10.35;;;;;;;6.93;100.00;100893.81;4299173;81;28612;-83
2021/03/01 16:11:30;;;;;;;28.85;14.25;;;;;;;7.04;100.00;100897.19;4294443;82;28558;-81
2021/03/01 16:17:32;;;;;;;19.73;9.63;;;;;;;6.91;100.00;100894.45;4309025;81;28599;-81
2021/03/01 16:23:38;;;;;;;28.70;10.68;;;;;;;6.75;100.00;100899.22;4293769;81;28589;-80
2021/03/01 16:29:42;;;;;;;21.97;10.28;;;;;;;6.45;100.00;100901.91;4293141;81;28582;-81
2021/03/01 16:35:48;;;;;;;20.25;9.93;;;;;;;6.58;100.00;100902.31;4309608;81;28665;-81
2021/03/01 16:42:07;;;;;;;25.70;11.22;;;;;;;6.49;100.00;100899.25;4552439;76;103779;-83
2021/03/01 16:48:10;;;;;;;24.60;10.85;;;;;;;6.46;100.00;100896.91;4479656;79;28572;-87
2021/03/01 16:54:12;;;;;;;23.15;10.08;;;;;;;6.33;100.00;100903.52;4496945;77;28560;-82
2021/03/01 17:00:16;;;;;;;20.75;8.93;;;;;;;6.05;100.00;100904.98;4465200;77;28574;-84
2021/03/01 17:06:23;;;;;;;27.40;12.25;;;;;;;6.18;100.00;100920.61;4463607;77;28598;-83
2021/03/01 17:12:41;;;;;;;24.23;11.33;;;;;;;6.20;100.00;100916.46;4460857;77;28592;-84
2021/03/01 17:18:45;;;;;;;25.70;11.33;;;;;;;6.05;100.00;100922.34;4496112;77;28558;-87
2021/03/01 17:24:47;;;;;;;25.57;10.78;;;;;;;6.02;100.00;100913.80;4500954;77;28607;-86
2021/03/01 17:30:50;;;;;;;26.55;11.95;;;;;;;6.04;100.00;100909.98;4485892;77;28677;-84
2021/03/01 17:36:53;;;;;;;27.25;12.33;;;;;;;6.04;100.00;100911.80;4471788;77;28585;-85
2021/03/01 17:42:55;;;;;;;27.45;12.33;;;;;;;5.89;100.00;100912.85;4487441;78;28563;-84
2021/03/01 17:49:08;;;;;;;25.08;11.53;;;;;;;5.73;100.00;100910.36;4490793;77;28578;-83
2021/03/01 17:55:40;;;;;;;25.97;10.75;;;;;;;5.72;100.00;100910.03;4468416;79;28634;-82
2021/03/01 18:01:44;;;;;;;24.27;10.28;;;;;;;5.72;100.00;100911.36;4482829;78;28565;-90
2021/03/01 18:07:51;;;;;;;32.63;13.58;;;;;;;5.77;100.00;100913.06;4502073;79;28633;-83
2021/03/01 18:13:54;;;;;;;25.85;11.80;;;;;;;5.66;100.00;100910.14;4463954;79;28584;-84
2021/03/01 18:20:00;;;;;;;29.40;13.32;;;;;;;5.88;100.00;100895.13;4482715;79;28538;-88
2021/03/01 18:26:02;;;;;;;29.35;12.80;;;;;;;5.67;100.00;100894.47;4493773;79;28564;-87
2021/03/01 18:39:11;;;;;;;30.95;13.30;;;;;;;5.21;100.00;100895.03;4381848;80;85909;-84
2021/03/01 18:45:16;;;;;;;52.27;22.75;;;;;;;5.09;100.00;100913.88;4300074;81;28642;-79
2021/03/01 18:51:18;;;;;;;34.30;13.32;;;;;;;5.14;100.00;100906.77;4367857;80;28577;-83
2021/03/01 18:57:20;;;;;;;29.20;12.55;;;;;;;5.08;100.00;100921.53;4296756;82;28584;-84
2021/03/01 19:03:22;;;;;;;31.62;14.03;;;;;;;5.00;100.00;100913.45;4297347;82;28551;-84
2021/03/01 19:09:24;;;;;;;32.53;14.53;;;;;;;4.85;100.00;100917.92;4318438;81;28552;-85
2021/03/01 19:15:26;;;;;;;35.70;15.30;;;;;;;4.90;100.00;100925.48;4323627;81;28585;-87
2021/03/01 19:21:28;;;;;;;32.45;13.78;;;;;;;4.86;100.00;100926.27;4184266;84;28561;-80
2021/03/01 19:27:31;;;;;;;32.85;15.20;;;;;;;4.71;100.00;100922.41;4310124;82;28561;-84
2021/03/01 19:33:33;;;;;;;34.92;15.15;;;;;;;4.71;100.00;100933.90;4279903;81;28613;-84
2021/03/01 19:39:36;;;;;;;30.70;14.35;;;;;;;4.58;100.00;100928.91;4172454;84;28553;-84
2021/03/01 19:45:38;;;;;;;30.88;12.53;;;;;;;4.53;100.00;100935.63;4173779;84;28577;-85
2021/03/01 19:51:40;;;;;;;31.75;13.95;;;;;;;4.53;100.00;100931.16;4180942;83;28568;-81
2021/03/01 19:57:44;;;;;;;35.00;14.73;;;;;;;4.52;100.00;100928.15;4217129;84;28552;-84
2021/03/01 20:03:47;;;;;;;36.88;16.42;;;;;;;4.60;100.00;100933.59;4232257;82;28599;-81
2021/03/01 20:09:49;;;;;;;38.10;16.93;;;;;;;4.72;100.00;100936.91;4283220;81;28614;-83
2021/03/01 20:15:51;;;;;;;41.55;17.23;;;;;;;4.86;100.00;100931.59;4282281;81;28641;-79
2021/03/01 20:21:56;;;;;;;41.25;18.05;;;;;;;4.91;100.00;100937.82;4297683;81;28939;-79
2021/03/01 20:27:59;;;;;;;35.13;16.10;;;;;;;4.84;100.00;100927.39;4265166;81;28575;-79
2021/03/01 20:34:01;;;;;;;36.95;16.40;;;;;;;4.73;100.00;100936.42;4267189;83;28717;-81
2021/03/01 20:40:05;;;;;;;43.63;18.35;;;;;;;4.76;100.00;100927.31;4232029;82;28666;-80
2021/03/01 20:46:07;;;;;;;44.18;19.17;;;;;;;4.54;100.00;100924.02;4210060;84;28561;-81
2021/03/01 20:52:09;;;;;;;44.03;18.95;;;;;;;4.38;100.00;100913.46;4181085;84;28585;-80
2021/03/01 20:58:12;;;;;;;47.35;20.60;;;;;;;4.20;100.00;100914.70;4218026;82;28580;-75
2021/03/01 21:04:16;;;;;;;46.08;20.08;;;;;;;3.77;100.00;100912.84;4226239;82;28575;-76
2021/03/01 21:10:19;;;;;;;46.50;19.10;;;;;;;3.44;100.00;100918.91;4208030;83;28637;-76
2021/03/01 21:16:27;;;;;;;45.20;19.32;;;;;;;3.20;100.00;100919.63;4172022;83;28656;-77
2021/03/01 21:22:37;;;;;;;40.67;18.52;;;;;;;3.05;100.00;100916.51;4184702;83;28577;-78
2021/03/01 21:28:39;;;;;;;46.92;20.60;;;;;;;3.05;100.00;100910.38;4215694;82;28635;-77
2021/03/01 21:34:42;;;;;;;51.33;22.10;;;;;;;2.92;100.00;100923.41;4293807;82;28577;-77
2021/03/01 21:40:47;;;;;;;52.50;21.57;;;;;;;2.69;100.00;100913.94;4278937;82;28561;-76
2021/03/01 21:47:07;;;;;;;50.67;20.75;;;;;;;2.50;100.00;100910.23;4293201;81;28538;-76
2021/03/01 21:53:17;;;;;;;41.92;18.17;;;;;;;2.30;100.00;100910.12;4237337;83;28576;-76
2021/03/01 21:59:20;;;;;;;45.03;18.92;;;;;;;2.15;100.00;100910.94;4273071;81;28648;-76
2021/03/01 22:05:23;;;;;;;46.35;20.20;;;;;;;2.04;100.00;100904.38;4266486;81;28547;-75
2021/03/01 22:11:28;;;;;;;46.88;20.23;;;;;;;1.94;100.00;100903.81;4288957;81;28713;-76
2021/03/01 22:17:31;;;;;;;50.63;21.00;;;;;;;1.90;100.00;100910.83;4286329;82;28643;-76
2021/03/01 22:23:33;;;;;;;47.90;19.20;;;;;;;1.62;100.00;100912.64;4231099;82;28553;-77
2021/03/01 22:29:49;;;;;;;55.38;22.22;;;;;;;1.38;100.00;100922.94;4238167;82;44094;-76
2021/03/01 22:35:56;;;;;;;57.10;23.90;;;;;;;1.42;100.00;100916.91;4352586;81;28585;-76
2021/03/01 22:42:01;;;;;;;56.60;23.32;;;;;;;1.48;100.00;100912.44;4322170;80;28549;-76
2021/03/01 22:48:05;;;;;;;54.10;23.07;;;;;;;1.34;100.00;100914.88;4328627;81;28583;-76
2021/03/01 22:54:14;;;;;;;66.22;27.30;;;;;;;1.28;100.00;100924.64;4330314;81;28605;-76
2021/03/01 23:00:18;;;;;;;56.10;24.87;;;;;;;1.27;100.00;100930.91;4294435;81;28553;-75
2021/03/01 23:06:23;;;;;;;64.23;26.57;;;;;;;1.11;100.00;100936.13;4318798;82;28557;-78
2021/03/01 23:12:31;;;;;;;44.77;20.08;;;;;;;1.07;100.00;100946.59;4324707;81;43819;-77
2021/03/01 23:18:38;;;;;;;55.17;22.35;;;;;;;0.87;100.00;100960.10;4311832;81;44090;-76
2021/03/01 23:24:44;;;;;;;53.73;22.27;;;;;;;0.87;100.00;100954.80;4325647;80;28611;-77
2021/03/01 23:30:54;;;;;;;52.50;23.35;;;;;;;0.72;100.00;100957.31;4339508;81;44079;-75
2021/03/01 23:37:03;;;;;;;50.35;22.58;;;;;;;0.57;100.00;100964.17;4317031;81;43995;-76
2021/03/01 23:43:06;;;;;;;52.45;22.32;;;;;;;0.33;100.00;100972.17;4323774;81;44111;-76
2021/03/01 23:49:15;;;;;;;63.35;26.48;;;;;;;0.24;100.00;100970.58;4321234;80;43234;-76
2021/03/01 23:55:23;;;;;;;62.50;26.82;;;;;;;0.32;100.00;100962.55;4347450;81;43755;-78
